Blackstone, VA (23824)

5:59 PM EDT on July 23, 2017 (GMT -0400)
Downtown Blackstone | | Change Station

Elev 440 ft 37.08 °N, 78.00 °W | Updated 10 seconds ago

Clear
Clear
96.1 °F
Feels Like 109 °F
N
1.3
Wind Variable Wind from SW
Gusts 2.5 mph

Today
High -- | Low -- °F
--% Chance of Precip.
Yesterday
High -- | Low -- °F
Precip. -- in
Pressure 29.83 in
Visibility 10.0 miles
Clouds Clear
Heat Index 109 °F
Dew Point 75 °F
Humidity 51%
Rainfall 0.02 in
Snow Depth Not available.
6:10 AM 8:26 PM
New Moon, 0% visible
METAR KAVC 232156Z AUTO 29003KT 10SM CLR 35/20 A2983 RMK AO2 LTG DSNT E T03500200
Pressure 29.83 in
Visibility 10.0 miles
Clouds Clear
Heat Index 109 °F
Dew Point 75 °F
Humidity 51%
Rainfall 0.02 in
Snow Depth Not available.
6:10 AM 8:26 PM
New Moon, 0% visible
METAR KAVC 232156Z AUTO 29003KT 10SM CLR 35/20 A2983 RMK AO2 LTG DSNT E T03500200

Get Severe Weather Alerts

Thanks for signing up!

Be on the lookout for a verification email in your inbox.

You'll start receiving the daily forecast at 6 AM.

×

10-Day Weather Forecast

Almanac

Astronomy

Jul. 23, 2017 Rise Set
Actual Time
Civil Twilight
Nautical Twilight
Astronomical Twilight
Moon
Length of Visible Light
Length of Day
Tomorrow will be .
, % of the Moon is Illuminated

Today's Extremes

State Highs State Lows

Community

WunderPhotos

Category 6

Welcome to Category 6. This is the collective home for Weather Underground's featured writeups by Dr. Jeff Masters (right), Bob Henson (left), Chris Burt, and other regular contributors.

Nearby

Air Quality

  Air Quality AQ Index Pollutant
Not available.

Snow Depth

Station Depth Elevation

Earthquake Activity

City Distance Mag. Time & Date
Minimum magnitude displayed is 2.5.

Coastal Water Temperatures

Place Temperature

Stations

Nearby Weather Stations

Station Location Temp. Windchill Dew Point Humidity Wind Precip. Elev Updated Type
                   

Watches & Warnings

There are currently no watches in effect.